Time,TemperatureF,DewpointF,PressureIn,WindDirection,WindDirectionDegrees,WindSpeedMPH,WindSpeedGustMPH,Humidity,HourlyPrecipIn,Conditions,Clouds,dailyrainin,SolarRadiationWatts/m^2,SoftwareType,DateUTC
2013-02-14 00:01:00,46.0,16.0,-100.00,NNW,337,4.0,10.0,29,0.00,,,0.00,0.000000,,2013-02-14 08:01:00,
2013-02-14 00:52:00,46.0,16.0,-100.00,NNW,339,4.0,9.0,29,0.00,,,0.00,0.000000,,2013-02-14 08:52:00,
2013-02-14 01:01:00,46.0,16.0,-100.00,NNW,339,4.0,9.0,29,0.00,,,0.00,0.000000,,2013-02-14 09:01:00,
2013-02-14 01:52:00,47.0,18.0,-100.00,NNW,344,5.0,12.0,31,0.00,,,0.00,0.000000,,2013-02-14 09:52:00,
2013-02-14 02:02:00,47.0,18.0,-100.00,NNW,344,5.0,12.0,31,0.00,,,0.00,0.000000,,2013-02-14 10:02:00,
2013-02-14 02:52:00,47.0,19.0,-100.00,North,350,6.0,13.0,32,0.00,,,0.00,0.000000,,2013-02-14 10:52:00,
2013-02-14 03:01:00,47.0,19.0,-100.00,North,350,6.0,13.0,32,0.00,,,0.00,0.000000,,2013-02-14 11:01:00,
2013-02-14 03:52:00,44.0,17.0,-100.00,NE,53,2.0,13.0,33,0.00,,,0.00,0.000000,,2013-02-14 11:52:00,
2013-02-14 04:01:00,44.0,17.0,-100.00,NE,53,2.0,13.0,33,0.00,,,0.00,0.000000,,2013-02-14 12:01:00,
2013-02-14 04:53:00,44.0,17.0,-100.00,NNW,338,3.0,7.0,33,0.00,,,0.00,0.000000,,2013-02-14 12:53:00,
2013-02-14 05:01:00,44.0,17.0,-100.00,NNW,338,3.0,7.0,33,0.00,,,0.00,0.000000,,2013-02-14 13:01:00,
2013-02-14 05:51:00,43.0,17.0,-100.00,WNW,297,1.0,5.0,34,0.00,,,0.00,0.000000,,2013-02-14 13:51:00,
2013-02-14 06:01:00,43.0,17.0,-100.00,WNW,297,1.0,5.0,34,0.00,,,0.00,0.000000,,2013-02-14 14:01:00,
2013-02-14 06:52:00,46.0,19.0,-100.00,NNW,339,5.0,14.0,33,0.00,,,0.00,0.000000,,2013-02-14 14:52:00,
2013-02-14 07:01:00,46.0,19.0,-100.00,NNW,339,5.0,14.0,33,0.00,,,0.00,0.000000,,2013-02-14 15:01:00,
2013-02-14 07:52:00,47.0,17.0,-100.00,NNE,14,4.0,14.0,30,0.00,,,0.00,22.000000,,2013-02-14 15:52:00,
2013-02-14 08:01:00,47.0,17.0,-100.00,NNE,14,4.0,14.0,30,0.00,,,0.00,22.000000,,2013-02-14 16:01:00,
2013-02-14 08:52:00,53.0,20.0,-100.00,ENE,76,5.0,12.0,27,0.00,,,0.00,221.000000,,2013-02-14 16:52:00,
2013-02-14 09:01:00,53.0,20.0,-100.00,ENE,76,5.0,12.0,27,0.00,,,0.00,221.000000,,2013-02-14 17:01:00,
2013-02-14 09:52:00,55.0,21.0,-100.00,NE,53,7.0,21.0,26,-99.99,,,0.00,453.000000,,2013-02-14 17:52:00,
2013-02-14 10:01:00,55.0,21.0,-100.00,NE,53,7.0,21.0,26,-99.99,,,0.00,453.000000,,2013-02-14 18:01:00,
2013-02-14 10:31:00,55.0,21.0,-100.00,NE,53,7.0,21.0,26,-99.99,,,0.00,453.000000,,2013-02-14 18:31:00,
2013-02-14 10:52:00,59.0,21.0,-100.00,ESE,103,8.0,15.0,23,0.00,,,0.00,645.000000,,2013-02-14 18:52:00,
2013-02-14 11:02:00,59.0,21.0,-100.00,ESE,103,8.0,15.0,23,0.00,,,0.00,645.000000,,2013-02-14 19:02:00,
2013-02-14 11:31:00,59.0,21.0,-100.00,ESE,103,8.0,15.0,23,0.00,,,0.00,645.000000,,2013-02-14 19:31:00,
2013-02-14 11:52:00,63.0,22.0,-100.00,ENE,57,3.0,19.0,21,0.00,,,0.00,775.000000,,2013-02-14 19:52:00,
2013-02-14 12:01:00,63.0,22.0,-100.00,ENE,57,3.0,19.0,21,0.00,,,0.00,775.000000,,2013-02-14 20:01:00,
2013-02-14 12:52:00,66.0,21.0,-100.00,ESE,115,5.0,13.0,18,-99.99,,,0.00,839.000000,,2013-02-14 20:52:00,
2013-02-14 13:02:00,66.0,21.0,-100.00,ESE,115,5.0,13.0,18,-99.99,,,0.00,839.000000,,2013-02-14 21:02:00,
2013-02-14 13:11:00,66.0,21.0,-100.00,ESE,115,5.0,13.0,18,-99.99,,,0.00,839.000000,,2013-02-14 21:11:00,
2013-02-14 13:21:00,66.0,21.0,-100.00,ESE,115,5.0,13.0,18,-99.99,,,0.00,839.000000,,2013-02-14 21:21:00,
2013-02-14 13:31:00,66.0,21.0,-100.00,ESE,115,5.0,13.0,18,-99.99,,,0.00,839.000000,,2013-02-14 21:31:00,
2013-02-14 13:52:00,66.0,15.0,-100.00,ENE,77,5.0,13.0,14,0.00,,,0.00,822.000000,,2013-02-14 21:52:00,
2013-02-14 14:02:00,66.0,15.0,-100.00,ENE,77,5.0,13.0,14,0.00,,,0.00,822.000000,,2013-02-14 22:02:00,
2013-02-14 14:21:00,66.0,15.0,-100.00,ENE,77,5.0,13.0,14,0.00,,,0.00,822.000000,,2013-02-14 22:21:00,
2013-02-14 14:31:00,66.0,15.0,-100.00,ENE,77,5.0,13.0,14,0.00,,,0.00,822.000000,,2013-02-14 22:31:00,
2013-02-14 14:52:00,67.0,15.0,-100.00,East,99,6.0,14.0,13,0.00,,,0.00,723.000000,,2013-02-14 22:52:00,
2013-02-14 15:01:00,67.0,15.0,-100.00,East,99,6.0,14.0,13,0.00,,,0.00,723.000000,,2013-02-14 23:01:00,
2013-02-14 15:11:00,67.0,15.0,-100.00,East,99,6.0,14.0,13,0.00,,,0.00,723.000000,,2013-02-14 23:11:00,
2013-02-14 15:21:00,67.0,15.0,-100.00,East,99,6.0,14.0,13,0.00,,,0.00,723.000000,,2013-02-14 23:21:00,
2013-02-14 15:31:00,67.0,15.0,-100.00,East,99,6.0,14.0,13,0.00,,,0.00,723.000000,,2013-02-14 23:31:00,
2013-02-14 15:52:00,61.0,10.0,-100.00,NE,41,5.0,16.0,13,0.00,,,0.00,560.000000,,2013-02-14 23:52:00,
2013-02-14 16:01:00,61.0,10.0,-100.00,NE,41,5.0,16.0,13,0.00,,,0.00,560.000000,,2013-02-15 00:01:00,
2013-02-14 16:52:00,57.0,11.0,-100.00,NE,42,6.0,16.0,16,0.00,,,0.00,176.000000,,2013-02-15 00:52:00,
2013-02-14 17:01:00,57.0,11.0,-100.00,NE,42,6.0,16.0,16,0.00,,,0.00,176.000000,,2013-02-15 01:01:00,
2013-02-14 17:52:00,54.0,13.0,-100.00,NNE,26,5.0,17.0,19,0.00,,,0.00,18.000000,,2013-02-15 01:52:00,
2013-02-14 18:01:00,54.0,13.0,-100.00,NNE,26,5.0,17.0,19,0.00,,,0.00,18.000000,,2013-02-15 02:01:00,
2013-02-14 18:52:00,53.0,14.0,-100.00,ENE,72,5.0,15.0,21,0.00,,,0.00,1.000000,,2013-02-15 02:52:00,
2013-02-14 19:02:00,53.0,14.0,-100.00,ENE,72,5.0,15.0,21,0.00,,,0.00,1.000000,,2013-02-15 03:02:00,
2013-02-14 19:52:00,51.0,14.0,-100.00,East,100,6.0,15.0,22,0.00,,,0.00,0.000000,,2013-02-15 03:52:00,
2013-02-14 20:01:00,51.0,14.0,-100.00,East,100,6.0,15.0,22,0.00,,,0.00,0.000000,,2013-02-15 04:01:00,
2013-02-14 20:52:00,51.0,12.0,-100.00,North,11,9.0,20.0,21,0.00,,,0.00,0.000000,,2013-02-15 04:52:00,
2013-02-14 21:02:00,51.0,12.0,-100.00,North,11,9.0,20.0,21,0.00,,,0.00,0.000000,,2013-02-15 05:02:00,
2013-02-14 21:52:00,48.0,11.0,-100.00,NNE,12,8.0,21.0,22,0.00,,,0.00,0.000000,,2013-02-15 05:52:00,
2013-02-14 22:02:00,48.0,11.0,-100.00,NNE,12,8.0,21.0,22,0.00,,,0.00,0.000000,,2013-02-15 06:02:00,
2013-02-14 22:31:00,48.0,11.0,-100.00,NNE,12,8.0,21.0,22,0.00,,,0.00,0.000000,,2013-02-15 06:31:00,
2013-02-14 22:52:00,48.0,9.0,-100.00,NNE,16,8.0,22.0,20,0.00,,,0.00,0.000000,,2013-02-15 06:52:00,
2013-02-14 23:01:00,48.0,9.0,-100.00,NNE,16,8.0,22.0,20,0.00,,,0.00,0.000000,,2013-02-15 07:01:00,
2013-02-14 23:52:00,48.0,8.0,-100.00,North,350,7.0,20.0,19,0.00,,,0.00,0.000000,,2013-02-15 07:52:00,